createdAt,value
2019-01-25T00:00:28.870Z,21.80
2019-01-25T00:02:59.564Z,25.00
2019-01-25T00:05:30.129Z,24.53
2019-01-25T00:08:00.934Z,22.60
2019-01-25T00:10:31.720Z,25.17
2019-01-25T00:13:02.380Z,22.93
2019-01-25T00:15:33.579Z,22.77
2019-01-25T00:18:04.354Z,24.60
2019-01-25T00:20:34.960Z,24.10
2019-01-25T00:23:05.874Z,24.53
2019-01-25T00:25:36.479Z,23.63
2019-01-25T00:28:07.101Z,22.73
2019-01-25T00:30:37.982Z,23.40
2019-01-25T00:33:08.574Z,22.00
2019-01-25T00:35:39.216Z,23.43
2019-01-25T00:38:10.184Z,23.43
2019-01-25T00:40:42.028Z,23.20
2019-01-25T00:43:12.799Z,24.47
2019-01-25T00:45:43.364Z,24.80
2019-01-25T00:48:13.899Z,22.33
2019-01-25T00:50:44.849Z,24.33
2019-01-25T00:53:15.569Z,22.63
2019-01-25T00:55:45.999Z,25.40
2019-01-25T00:58:16.949Z,23.73
2019-01-25T01:00:47.539Z,23.63
2019-01-25T01:03:18.583Z,20.80
2019-01-25T01:05:49.269Z,22.17
2019-01-25T01:08:19.894Z,22.60
2019-01-25T01:10:50.574Z,24.53
2019-01-25T01:13:21.459Z,22.97
2019-01-25T01:15:51.933Z,26.43
2019-01-25T01:18:22.534Z,27.43
2019-01-25T01:20:53.184Z,25.23
2019-01-25T01:23:23.766Z,24.67
2019-01-25T01:25:54.420Z,23.47
2019-01-25T01:28:25.354Z,26.27
2019-01-25T01:30:55.984Z,24.47
2019-01-25T01:33:26.509Z,27.47
2019-01-25T01:35:57.257Z,27.37
2019-01-25T01:38:27.902Z,27.73
2019-01-25T01:40:58.498Z,28.37
2019-01-25T01:43:29.214Z,28.03
2019-01-25T01:45:59.889Z,28.37
2019-01-25T01:48:30.519Z,29.37
2019-01-25T01:51:01.174Z,27.37
2019-01-25T01:53:31.734Z,24.50
2019-01-25T01:56:02.258Z,27.90
2019-01-25T01:58:33.154Z,26.80
2019-01-25T02:01:04.030Z,27.97
2019-01-25T02:03:34.619Z,27.53
2019-01-25T02:06:06.083Z,26.03
2019-01-25T02:08:36.599Z,25.63
2019-01-25T02:11:07.349Z,28.20
2019-01-25T02:13:38.261Z,27.53
2019-01-25T02:16:08.894Z,26.93
2019-01-25T02:18:39.404Z,25.43
2019-01-25T02:21:10.199Z,24.67
2019-01-25T02:23:40.638Z,27.17
2019-01-25T02:26:11.237Z,27.90
2019-01-25T02:28:42.019Z,26.13
2019-01-25T02:31:12.715Z,28.17
2019-01-25T02:33:43.380Z,29.70
2019-01-25T02:36:14.244Z,27.80
2019-01-25T02:38:44.824Z,28.20
2019-01-25T02:41:15.494Z,26.93
2019-01-25T02:43:46.104Z,28.13
2019-01-25T02:46:16.665Z,54.58
2019-01-25T02:48:47.333Z,34.23
2019-01-25T02:51:18.219Z,31.67
2019-01-25T02:53:48.840Z,31.43
2019-01-25T02:56:19.504Z,27.77
2019-01-25T02:58:50.494Z,29.37
2019-01-25T03:01:21.139Z,30.60
2019-01-25T03:03:51.963Z,28.47
2019-01-25T03:06:22.784Z,28.57
2019-01-25T03:08:53.334Z,29.50
2019-01-25T03:11:23.969Z,27.40
2019-01-25T03:13:54.755Z,26.43
2019-01-25T03:16:25.384Z,27.57
2019-01-25T03:18:55.959Z,29.13
2019-01-25T03:21:26.749Z,24.77
2019-01-25T03:23:57.311Z,27.90
2019-01-25T03:26:27.895Z,28.93
2019-01-25T03:28:58.526Z,28.80
2019-01-25T03:31:28.991Z,29.17
2019-01-25T03:33:59.754Z,25.80
2019-01-25T03:36:30.409Z,29.47
2019-01-25T03:39:00.997Z,26.00
2019-01-25T03:41:31.565Z,25.20
2019-01-25T03:44:02.155Z,21.03
2019-01-25T03:46:32.777Z,25.20
2019-01-25T03:49:03.405Z,24.50
2019-01-25T03:51:34.235Z,21.80
2019-01-25T03:54:04.789Z,23.20
2019-01-25T03:56:35.332Z,24.80
2019-01-25T03:59:06.308Z,24.33
2019-01-25T04:01:36.939Z,26.40
2019-01-25T04:04:07.594Z,26.90
2019-01-25T04:06:38.324Z,26.47
2019-01-25T04:09:10.875Z,24.67
2019-01-25T04:11:41.589Z,25.50
2019-01-25T04:14:12.135Z,23.97
2019-01-25T04:16:42.724Z,26.27
2019-01-25T04:19:13.605Z,24.17
2019-01-25T04:21:44.369Z,25.20
2019-01-25T04:24:14.814Z,23.90
2019-01-25T04:26:45.439Z,21.67
2019-01-25T04:29:16.024Z,24.53
2019-01-25T04:31:46.559Z,17.97
2019-01-25T04:34:17.214Z,25.07
2019-01-25T04:36:47.753Z,24.20
2019-01-25T04:39:18.159Z,24.57
2019-01-25T04:41:48.854Z,24.83
2019-01-25T04:44:19.434Z,23.63
2019-01-25T04:46:50.014Z,23.20
2019-01-25T04:49:20.919Z,23.97
2019-01-25T04:51:51.455Z,23.50
2019-01-25T04:54:22.027Z,23.90
2019-01-25T04:56:52.889Z,25.67
2019-01-25T04:59:26.985Z,22.67
2019-01-25T05:01:57.829Z,25.40
2019-01-25T05:04:31.284Z,21.50
2019-01-25T05:07:01.935Z,24.43
2019-01-25T05:09:38.017Z,26.00
2019-01-25T05:12:08.785Z,22.13
2019-01-25T05:14:39.264Z,22.50
2019-01-25T05:17:09.875Z,25.53
2019-01-25T05:19:41.786Z,24.90
2019-01-25T05:22:12.419Z,24.40
2019-01-25T05:24:42.997Z,25.70
2019-01-25T05:27:13.600Z,23.27
2019-01-25T05:29:55.740Z,23.73
2019-01-25T05:32:26.555Z,22.27
2019-01-25T05:34:57.175Z,24.43
2019-01-25T05:37:27.759Z,27.47
2019-01-25T05:39:58.564Z,27.87
2019-01-25T05:42:29.101Z,27.23
2019-01-25T05:44:59.789Z,26.70
2019-01-25T05:47:30.835Z,25.10
2019-01-25T05:50:01.562Z,23.53
2019-01-25T05:52:32.185Z,23.27
2019-01-25T05:55:02.914Z,21.80
2019-01-25T05:57:33.484Z,23.03
2019-01-25T06:00:07.036Z,23.97
2019-01-25T06:02:37.514Z,25.10
2019-01-25T06:05:08.294Z,25.53
2019-01-25T06:07:39.110Z,23.87
2019-01-25T06:10:09.954Z,25.17
2019-01-25T06:12:40.526Z,23.20
2019-01-25T06:15:11.450Z,22.33
2019-01-25T06:17:42.210Z,21.47
2019-01-25T06:20:13.195Z,22.30
2019-01-25T06:22:43.959Z,23.17
2019-01-25T06:25:29.829Z,23.30
2019-01-25T06:31:32.124Z,18.87
2019-01-25T06:34:02.839Z,21.03
2019-01-25T06:36:33.429Z,20.13
2019-01-25T06:39:05.659Z,21.90
2019-01-25T06:41:43.806Z,18.90
2019-01-25T06:44:08.579Z,20.23
2019-01-25T06:46:38.994Z,20.73
2019-01-25T06:49:09.919Z,19.87
2019-01-25T06:51:40.864Z,19.60
2019-01-25T07:01:01.254Z,18.90
2019-01-25T07:03:31.839Z,19.63
2019-01-25T07:06:02.519Z,16.10
2019-01-25T07:08:33.114Z,22.57
2019-01-25T07:11:03.826Z,16.43
2019-01-25T07:13:34.484Z,18.50
2019-01-25T07:16:05.293Z,17.27
2019-01-25T07:18:37.020Z,21.27
2019-01-25T07:21:08.245Z,19.20
2019-01-25T07:23:38.939Z,31.97
2019-01-25T07:26:09.554Z,17.33
2019-01-25T07:28:40.354Z,23.67
2019-01-25T07:31:11.020Z,23.23
2019-01-25T07:33:41.689Z,23.23
2019-01-25T07:36:12.494Z,22.40
2019-01-25T07:38:42.974Z,20.70
2019-01-25T07:41:13.579Z,19.37
2019-01-25T07:43:44.289Z,20.17
2019-01-25T07:46:15.050Z,21.33
2019-01-25T07:48:45.687Z,19.87
2019-01-25T07:51:16.555Z,19.73
2019-01-25T07:53:47.153Z,19.10
2019-01-25T07:56:17.839Z,20.87
2019-01-25T07:58:48.505Z,20.03
2019-01-25T08:01:19.154Z,19.63
2019-01-25T08:03:49.885Z,20.23
2019-01-25T08:06:20.666Z,18.43
2019-01-25T08:08:51.256Z,19.23
2019-01-25T08:11:22.059Z,21.60
2019-01-25T08:13:52.980Z,19.37
2019-01-25T08:16:23.626Z,19.67
2019-01-25T08:18:54.234Z,20.40
2019-01-25T08:21:25.018Z,20.47
2019-01-25T08:23:55.676Z,20.03
2019-01-25T08:26:26.405Z,18.93
2019-01-25T08:28:57.390Z,18.13
2019-01-25T08:31:28.150Z,16.73
2019-01-25T08:33:58.776Z,20.17
2019-01-25T08:36:29.817Z,19.77
2019-01-25T08:39:00.601Z,16.57
2019-01-25T08:41:31.125Z,17.43
2019-01-25T08:44:01.612Z,19.23
2019-01-25T08:46:32.412Z,20.17
2019-01-25T08:49:03.177Z,20.77
2019-01-25T08:51:34.208Z,22.63
2019-01-25T08:54:05.128Z,20.00
2019-01-25T08:56:35.909Z,19.57
2019-01-25T08:59:06.907Z,22.03
2019-01-25T09:01:37.555Z,20.33
2019-01-25T09:04:08.144Z,21.80
2019-01-25T09:06:39.119Z,21.60
2019-01-25T09:09:11.939Z,20.70
2019-01-25T09:11:42.954Z,21.30
2019-01-25T09:14:13.833Z,21.53
2019-01-25T09:16:44.426Z,20.63
2019-01-25T09:19:15.019Z,20.47
2019-01-25T09:21:45.713Z,22.17
2019-01-25T09:24:16.688Z,23.63
2019-01-25T09:26:47.624Z,21.40
2019-01-25T09:29:18.854Z,22.97
2019-01-25T09:31:49.614Z,22.50
2019-01-25T09:34:20.929Z,24.40
2019-01-25T09:36:51.572Z,22.80
2019-01-25T09:39:22.559Z,25.83
2019-01-25T09:41:53.499Z,25.87
2019-01-25T09:44:24.099Z,25.50
2019-01-25T09:46:55.757Z,25.20
2019-01-25T09:49:27.024Z,26.77
2019-01-25T09:51:57.979Z,28.40
2019-01-25T09:54:28.804Z,28.10
2019-01-25T09:56:59.639Z,30.33
2019-01-25T09:59:30.544Z,32.63
2019-01-25T10:02:01.534Z,32.80
2019-01-25T10:04:32.559Z,32.83
2019-01-25T10:07:03.455Z,32.90
2019-01-25T10:09:34.174Z,33.20
2019-01-25T10:12:05.320Z,32.77
2019-01-25T10:14:36.119Z,32.30
2019-01-25T10:17:06.985Z,35.53
2019-01-25T10:19:37.634Z,39.53
2019-01-25T10:22:08.902Z,41.40
2019-01-25T10:24:39.574Z,40.77
2019-01-25T10:27:10.794Z,39.03
2019-01-25T10:29:41.662Z,39.40
2019-01-25T10:32:12.429Z,37.37
2019-01-25T10:34:43.419Z,38.30
2019-01-25T10:37:14.169Z,39.30
2019-01-25T10:39:44.705Z,38.57
2019-01-25T10:42:15.419Z,35.40
2019-01-25T10:44:46.171Z,38.40
2019-01-25T10:47:16.773Z,41.00
2019-01-25T10:49:47.984Z,35.43
2019-01-25T10:52:18.595Z,36.13
2019-01-25T10:54:49.396Z,37.23
2019-01-25T10:57:20.769Z,38.03
2019-01-25T10:59:51.599Z,35.93
2019-01-25T11:02:22.414Z,36.53
2019-01-25T11:04:53.314Z,41.83
2019-01-25T11:07:24.080Z,43.20
2019-01-25T11:09:54.748Z,43.37
2019-01-25T11:12:25.600Z,42.20
2019-01-25T11:14:56.199Z,42.97
2019-01-25T11:17:26.822Z,38.53
2019-01-25T11:19:57.617Z,38.77
2019-01-25T11:22:28.233Z,41.53
2019-01-25T11:24:58.979Z,40.67
2019-01-25T11:27:29.554Z,37.73
2019-01-25T11:30:00.240Z,40.97
2019-01-25T11:32:30.900Z,39.97
2019-01-25T11:35:01.727Z,39.83
2019-01-25T11:37:32.634Z,40.17
2019-01-25T11:40:03.679Z,41.17
2019-01-25T11:42:34.439Z,42.80
2019-01-25T11:45:05.234Z,45.93
2019-01-25T11:47:35.830Z,42.87
2019-01-25T11:50:07.999Z,40.30
2019-01-25T11:52:38.794Z,39.17
2019-01-25T11:55:09.739Z,42.00
2019-01-25T11:57:41.040Z,42.77
2019-01-25T12:00:20.200Z,39.70
2019-01-25T12:02:50.776Z,39.80
2019-01-25T12:05:22.671Z,39.40
2019-01-25T12:07:53.729Z,40.33
2019-01-25T12:10:26.074Z,37.80
2019-01-25T12:12:56.789Z,37.33
2019-01-25T12:15:27.855Z,36.90
2019-01-25T12:17:58.669Z,38.40
2019-01-25T12:20:31.110Z,39.10
2019-01-25T12:23:01.861Z,35.63
2019-01-25T12:25:32.729Z,35.40
2019-01-25T12:28:05.378Z,36.30
2019-01-25T12:30:38.387Z,33.67
2019-01-25T12:33:10.736Z,32.40
2019-01-25T12:35:43.580Z,32.87
2019-01-25T12:38:14.559Z,31.43
2019-01-25T12:40:45.415Z,30.63
2019-01-25T12:43:23.719Z,29.53
2019-01-25T12:45:50.297Z,30.60
2019-01-25T12:48:21.139Z,29.53
2019-01-25T12:50:55.740Z,30.43
2019-01-25T12:53:27.164Z,29.67
2019-01-25T12:55:57.714Z,30.23
2019-01-25T12:58:30.784Z,28.67
2019-01-25T13:01:02.681Z,28.70
2019-01-25T13:03:33.434Z,26.73
2019-01-25T13:06:04.539Z,27.47
2019-01-25T13:08:35.234Z,26.33
2019-01-25T13:11:06.234Z,26.70
2019-01-25T13:13:37.238Z,27.17
2019-01-25T13:16:08.014Z,27.90
2019-01-25T13:18:38.744Z,28.87
2019-01-25T13:21:09.494Z,27.33
2019-01-25T13:23:40.130Z,26.87
2019-01-25T13:26:10.904Z,25.97
2019-01-25T13:28:41.850Z,26.37
2019-01-25T13:31:12.744Z,25.10
2019-01-25T13:33:43.782Z,26.83
2019-01-25T13:36:14.929Z,26.03
2019-01-25T13:38:45.654Z,26.13
2019-01-25T13:41:16.389Z,27.03
2019-01-25T13:43:47.112Z,27.13
2019-01-25T13:46:17.744Z,25.37
2019-01-25T13:48:48.459Z,26.70
2019-01-25T13:51:19.234Z,26.33
2019-01-25T13:53:49.819Z,25.63
2019-01-25T13:56:21.006Z,25.37
2019-01-25T13:58:51.654Z,24.90
2019-01-25T14:01:22.244Z,24.70
2019-01-25T14:03:53.034Z,25.20
2019-01-25T14:06:23.794Z,23.30
2019-01-25T14:08:54.674Z,24.97
2019-01-25T14:11:25.445Z,25.77
2019-01-25T14:13:56.379Z,25.07
2019-01-25T14:16:27.195Z,24.50
2019-01-25T14:18:57.740Z,24.10
2019-01-25T14:21:28.444Z,25.23
2019-01-25T14:23:59.184Z,24.73
2019-01-25T14:26:30.265Z,24.07
2019-01-25T14:29:00.964Z,23.53
2019-01-25T14:31:31.590Z,24.63
2019-01-25T14:34:02.544Z,25.47
2019-01-25T14:36:33.104Z,25.03
2019-01-25T14:39:05.106Z,25.00
2019-01-25T14:41:35.994Z,25.93
2019-01-25T14:44:06.711Z,26.10
2019-01-25T14:46:37.525Z,25.10
2019-01-25T14:49:08.148Z,25.23
2019-01-25T14:51:38.764Z,27.87
2019-01-25T14:54:09.469Z,36.20
2019-01-25T14:56:40.474Z,37.43
2019-01-25T14:59:11.220Z,71.73
2019-01-25T15:01:41.830Z,62.07
2019-01-25T15:04:12.545Z,48.10
2019-01-25T15:06:43.300Z,26.20
2019-01-25T15:09:14.204Z,27.37
2019-01-25T15:11:45.200Z,25.00
2019-01-25T15:14:15.855Z,25.43
2019-01-25T15:16:46.539Z,25.03
2019-01-25T15:19:17.719Z,27.80
2019-01-25T15:21:48.565Z,26.70
2019-01-25T15:24:19.545Z,24.20
2019-01-25T15:26:50.294Z,22.67
2019-01-25T15:29:21.269Z,25.17
2019-01-25T15:31:52.204Z,24.13
2019-01-25T15:34:22.915Z,25.03
2019-01-25T15:36:53.799Z,25.03
2019-01-25T15:39:24.387Z,25.50
2019-01-25T15:41:55.164Z,24.53
2019-01-25T15:44:25.843Z,23.97
2019-01-25T15:46:56.555Z,24.10
2019-01-25T15:49:27.799Z,24.83
2019-01-25T15:51:58.479Z,25.13
2019-01-25T15:54:29.400Z,25.50
2019-01-25T15:57:00.089Z,25.27
2019-01-25T15:59:30.704Z,25.27
2019-01-25T16:02:01.306Z,24.80
2019-01-25T16:04:35.028Z,24.90
2019-01-25T16:07:04.160Z,24.83
2019-01-25T16:09:34.944Z,25.83
2019-01-25T16:12:05.815Z,24.67
2019-01-25T16:14:36.619Z,25.23
2019-01-25T16:17:07.244Z,24.37
2019-01-25T16:19:38.714Z,26.20
2019-01-25T16:22:09.469Z,25.17
2019-01-25T16:24:40.634Z,27.47
2019-01-25T16:27:11.734Z,30.00
2019-01-25T16:29:42.459Z,28.93
2019-01-25T16:32:13.769Z,27.93
2019-01-25T16:34:44.449Z,27.87
2019-01-25T16:37:16.089Z,28.97
2019-01-25T16:39:47.097Z,27.90
2019-01-25T16:42:17.834Z,30.77
2019-01-25T16:44:48.636Z,30.00
2019-01-25T16:47:19.589Z,31.77
2019-01-25T16:49:50.999Z,29.37
2019-01-25T16:52:22.134Z,30.30
2019-01-25T16:54:52.918Z,29.23
2019-01-25T16:57:24.084Z,32.23
2019-01-25T16:59:54.834Z,33.37
2019-01-25T17:02:25.464Z,30.60
2019-01-25T17:04:56.275Z,32.40
2019-01-25T17:07:26.944Z,30.73
2019-01-25T17:09:58.100Z,28.33
2019-01-25T17:12:28.794Z,32.67
2019-01-25T17:14:59.955Z,33.67
2019-01-25T17:17:30.619Z,28.10
2019-01-25T17:20:01.729Z,36.40
2019-01-25T17:22:32.779Z,36.93
2019-01-25T17:25:03.494Z,36.27
2019-01-25T17:27:35.697Z,34.47
2019-01-25T17:30:11.734Z,36.50
2019-01-25T17:32:42.949Z,34.20
2019-01-25T17:35:14.235Z,30.37
2019-01-25T17:37:45.537Z,33.50
2019-01-25T17:40:18.299Z,35.13
2019-01-25T17:42:49.629Z,34.27
2019-01-25T17:45:20.294Z,36.43
2019-01-25T17:47:51.493Z,35.67
2019-01-25T17:50:22.299Z,38.87
2019-01-25T17:52:52.933Z,45.00
2019-01-25T17:55:23.899Z,43.57
2019-01-25T17:57:54.729Z,42.30
2019-01-25T18:00:41.269Z,38.57
2019-01-25T18:03:12.238Z,36.17
2019-01-25T18:05:43.069Z,39.90
2019-01-25T18:08:14.583Z,39.77
2019-01-25T18:10:45.849Z,40.17
2019-01-25T18:13:16.950Z,43.13
2019-01-25T18:15:48.204Z,43.73
2019-01-25T18:18:19.244Z,40.10
2019-01-25T18:20:50.018Z,38.20
2019-01-25T18:23:21.424Z,37.27
2019-01-25T18:25:55.904Z,37.90
2019-01-25T18:28:34.358Z,39.77
2019-01-25T18:31:12.304Z,36.60
2019-01-25T18:33:43.020Z,36.17
2019-01-25T18:36:13.681Z,34.73
2019-01-25T18:38:44.469Z,35.77
2019-01-25T18:41:15.354Z,36.80
2019-01-25T18:43:46.289Z,39.97
2019-01-25T18:46:17.214Z,44.23
2019-01-25T18:48:48.500Z,46.37
2019-01-25T18:51:19.404Z,40.77
2019-01-25T18:53:50.715Z,41.17
2019-01-25T18:56:22.994Z,38.10
2019-01-25T18:58:54.177Z,31.73
2019-01-25T19:01:25.067Z,35.57
2019-01-25T19:03:55.755Z,39.97
2019-01-25T19:06:27.219Z,42.27
2019-01-25T19:08:58.443Z,31.03
2019-01-25T19:11:29.239Z,29.50
2019-01-25T19:14:00.079Z,27.90
2019-01-25T19:16:30.780Z,30.27
2019-01-25T19:19:01.550Z,30.03
2019-01-25T19:21:32.305Z,29.13
2019-01-25T19:24:03.469Z,29.10
2019-01-25T19:26:34.479Z,31.37
2019-01-25T19:29:05.266Z,30.70
2019-01-25T19:31:36.620Z,29.30
2019-01-25T19:34:08.104Z,30.60
2019-01-25T19:36:39.044Z,29.97
2019-01-25T19:39:13.369Z,31.70
2019-01-25T19:41:44.411Z,30.93
2019-01-25T19:44:15.384Z,31.13
2019-01-25T19:46:46.606Z,30.53
2019-01-25T19:49:17.419Z,30.87
2019-01-25T19:51:48.399Z,32.37
2019-01-25T19:54:19.300Z,35.03
2019-01-25T19:56:50.038Z,34.73
2019-01-25T19:59:20.956Z,33.57
2019-01-25T20:01:51.664Z,33.07
2019-01-25T20:04:24.034Z,34.23
2019-01-25T20:06:55.379Z,32.30
2019-01-25T20:09:26.113Z,32.87
2019-01-25T20:11:57.040Z,33.90
2019-01-25T20:14:27.909Z,32.20
2019-01-25T20:16:59.385Z,35.30
2019-01-25T20:19:30.759Z,35.40
2019-01-25T20:22:01.526Z,33.50
2019-01-25T20:24:32.499Z,36.00
2019-01-25T20:27:03.346Z,35.20
2019-01-25T20:29:34.744Z,36.83
2019-01-25T20:32:05.640Z,36.43
2019-01-25T20:34:36.624Z,37.87
2019-01-25T20:37:08.368Z,34.87
2019-01-25T20:39:39.369Z,35.87
2019-01-25T20:42:10.604Z,34.27
2019-01-25T20:44:41.464Z,36.20
2019-01-25T20:47:12.856Z,34.00
2019-01-25T20:49:43.814Z,32.80
2019-01-25T20:52:15.075Z,31.77
2019-01-25T20:54:45.894Z,35.83
2019-01-25T20:57:16.724Z,34.73
2019-01-25T20:59:47.789Z,36.53
2019-01-25T21:02:18.829Z,33.60
2019-01-25T21:04:49.660Z,36.23
2019-01-25T21:07:20.745Z,36.40
2019-01-25T21:09:51.615Z,34.33
2019-01-25T21:12:23.922Z,35.83
2019-01-25T21:14:55.324Z,35.73
2019-01-25T21:17:26.725Z,37.47
2019-01-25T21:19:57.709Z,35.37
2019-01-25T21:22:30.164Z,40.20
2019-01-25T21:25:01.550Z,35.33
2019-01-25T21:27:32.494Z,35.27
2019-01-25T21:30:03.320Z,36.17
2019-01-25T21:32:34.339Z,36.53
2019-01-25T21:35:06.044Z,36.67
2019-01-25T21:37:37.920Z,34.73
2019-01-25T21:40:11.060Z,37.07
2019-01-25T21:42:42.457Z,36.73
2019-01-25T21:45:15.829Z,36.70
2019-01-25T21:47:47.149Z,36.83
2019-01-25T21:50:20.104Z,35.90
2019-01-25T21:52:50.944Z,34.00
2019-01-25T21:55:21.883Z,34.47
2019-01-25T21:57:52.760Z,35.87
2019-01-25T22:00:28.915Z,34.10
2019-01-25T22:03:00.369Z,33.43
2019-01-25T22:05:31.366Z,32.80
2019-01-25T22:08:02.823Z,38.67
2019-01-25T22:10:36.323Z,37.80
2019-01-25T22:13:07.475Z,39.10
2019-01-25T22:15:38.278Z,40.23
2019-01-25T22:18:09.502Z,39.83
2019-01-25T22:20:40.403Z,35.97
2019-01-25T22:23:11.102Z,38.83
2019-01-25T22:25:41.867Z,37.57
2019-01-25T22:28:12.957Z,34.27
2019-01-25T22:30:43.908Z,32.10
2019-01-25T22:33:15.213Z,36.47
2019-01-25T22:35:45.911Z,37.07
2019-01-25T22:38:16.785Z,35.50
2019-01-25T22:40:47.737Z,38.83
2019-01-25T22:43:18.397Z,36.60
2019-01-25T22:45:49.077Z,36.40
2019-01-25T22:48:20.111Z,37.13
2019-01-25T22:50:50.736Z,35.20
2019-01-25T22:53:21.467Z,38.23
2019-01-25T22:55:52.266Z,38.17
2019-01-25T22:58:23.241Z,36.53
2019-01-25T23:01:12.180Z,35.53
2019-01-25T23:03:50.476Z,36.87
2019-01-25T23:06:52.171Z,37.10
2019-01-25T23:09:29.351Z,35.80
2019-01-25T23:12:00.385Z,34.17
2019-01-25T23:14:31.095Z,36.37
2019-01-25T23:17:02.131Z,38.07
2019-01-25T23:19:33.310Z,39.20
2019-01-25T23:22:04.064Z,40.17
2019-01-25T23:24:34.730Z,38.63
2019-01-25T23:27:07.045Z,38.40
2019-01-25T23:29:37.733Z,38.43
2019-01-25T23:32:08.350Z,37.10
2019-01-25T23:34:39.044Z,38.27
2019-01-25T23:37:09.660Z,40.27
2019-01-25T23:39:40.634Z,39.00
2019-01-25T23:42:11.425Z,38.07
2019-01-25T23:44:42.094Z,38.27
2019-01-25T23:47:13.177Z,37.63
2019-01-25T23:49:43.884Z,39.00
2019-01-25T23:52:14.533Z,38.90
2019-01-25T23:54:45.204Z,36.93
2019-01-25T23:57:16.294Z,39.37
2019-01-25T23:59:46.923Z,38.43
